Time;durP1;ratioP1;P1;durP2;ratioP2;P2;SDS_P1;SDS_P2;PMS_P1;PMS_P2;Temp;Humidity;BMP_temperature;BMP_pressure;BME280_temperature;BME280_humidity;BME280_pressure;Samples;Min_cycle;Max_cycle;Signal;HPM_P1;HPM_P2
2022/04/14 00:01:36;;;;;;;5.90;3.13;;;12.10;99.90;;;;;;5029872;28;20191;-73
2022/04/14 00:04:02;;;;;;;10.03;3.30;;;12.00;99.90;;;;;;5029722;28;20604;-73
2022/04/14 00:06:28;;;;;;;9.10;3.73;;;12.00;99.90;;;;;;5029770;28;20290;-73
2022/04/14 00:08:53;;;;;;;10.93;3.87;;;12.00;99.90;;;;;;5012097;28;20194;-74
2022/04/14 00:11:19;;;;;;;9.80;3.47;;;12.00;99.90;;;;;;5030167;28;20686;-73
2022/04/14 00:13:46;;;;;;;8.50;3.37;;;11.90;99.90;;;;;;5030174;28;20991;-74
2022/04/14 00:16:11;;;;;;;9.60;3.20;;;11.80;99.90;;;;;;5029633;28;20453;-74
2022/04/14 00:18:37;;;;;;;9.70;3.53;;;11.80;99.90;;;;;;5030195;28;20413;-74
2022/04/14 00:21:03;;;;;;;6.50;3.10;;;11.80;99.90;;;;;;5030102;28;20191;-74
2022/04/14 00:23:28;;;;;;;11.90;4.03;;;11.70;99.90;;;;;;5029851;28;20717;-74
2022/04/14 00:25:54;;;;;;;5.30;3.00;;;11.70;99.90;;;;;;5029342;28;20256;-75
2022/04/14 00:28:19;;;;;;;6.00;3.90;;;11.70;99.90;;;;;;5029502;28;20214;-75
2022/04/14 00:30:45;;;;;;;10.80;3.27;;;11.70;99.90;;;;;;5029566;28;20696;-74
2022/04/14 00:33:10;;;;;;;10.40;3.37;;;11.70;99.90;;;;;;5029727;28;20183;-75
2022/04/14 00:35:36;;;;;;;5.47;3.83;;;11.60;99.90;;;;;;5029313;28;20178;-74
2022/04/14 00:38:02;;;;;;;10.40;4.30;;;11.70;99.90;;;;;;5029286;28;20182;-74
2022/04/14 00:40:28;;;;;;;12.43;4.43;;;11.70;99.90;;;;;;5011666;28;20451;-74
2022/04/14 00:42:53;;;;;;;8.10;3.37;;;11.70;99.90;;;;;;5011933;28;20276;-74
2022/04/14 00:45:19;;;;;;;11.40;4.13;;;11.70;99.90;;;;;;5029228;28;20204;-75
2022/04/14 00:47:45;;;;;;;14.03;4.20;;;11.60;99.90;;;;;;5029309;28;20563;-73
2022/04/14 00:50:13;;;;;;;5.23;3.33;;;11.60;99.90;;;;;;5011403;28;20241;-73
2022/04/14 00:52:46;;;;;;;5.77;3.47;;;11.40;99.90;;;;;;5028998;28;20422;-72
2022/04/14 00:55:15;;;;;;;11.13;4.13;;;11.40;99.90;;;;;;5011077;28;20433;-74
2022/04/14 00:57:42;;;;;;;10.13;3.50;;;11.40;99.90;;;;;;5028871;28;20536;-72
2022/04/14 01:00:08;;;;;;;8.67;3.30;;;11.40;99.90;;;;;;5029300;28;20431;-73
2022/04/14 01:02:34;;;;;;;4.63;3.27;;;11.30;99.90;;;;;;5029185;28;20431;-73
2022/04/14 01:05:00;;;;;;;6.70;3.73;;;11.20;99.90;;;;;;5028846;28;20470;-73
2022/04/14 01:07:27;;;;;;;11.90;4.03;;;11.20;99.90;;;;;;5028945;28;20232;-73
2022/04/14 01:09:54;;;;;;;6.83;3.27;;;11.10;99.90;;;;;;5029672;28;21080;-74
2022/04/14 01:12:19;;;;;;;7.37;3.70;;;11.00;99.90;;;;;;5029051;28;20890;-74
2022/04/14 01:14:45;;;;;;;5.93;2.80;;;11.10;99.90;;;;;;5029438;28;20434;-74
2022/04/14 01:17:11;;;;;;;10.43;3.47;;;11.20;99.90;;;;;;5028893;28;20704;-73
2022/04/14 01:19:38;;;;;;;11.93;3.23;;;11.20;99.90;;;;;;5029870;28;20190;-74
2022/04/14 01:22:18;;;;;;;9.87;3.73;;;11.20;99.90;;;;;;5029075;28;20416;-73
2022/04/14 01:24:44;;;;;;;11.43;3.50;;;11.30;99.90;;;;;;5028478;28;20596;-73
2022/04/14 01:27:10;;;;;;;5.13;3.13;;;11.30;99.90;;;;;;5029484;28;20909;-73
2022/04/14 01:29:35;;;;;;;9.00;3.50;;;11.30;99.90;;;;;;5032497;28;20423;-73
2022/04/14 01:32:02;;;;;;;7.50;3.70;;;11.30;99.90;;;;;;5014530;28;20500;-74
2022/04/14 01:34:31;;;;;;;7.67;3.97;;;11.30;99.90;;;;;;5032331;28;20424;-75
2022/04/14 01:37:00;;;;;;;6.00;3.60;;;11.30;99.90;;;;;;5014202;28;20458;-75
2022/04/14 01:39:30;;;;;;;4.67;3.33;;;11.20;99.90;;;;;;5032530;28;20514;-74
2022/04/14 01:41:56;;;;;;;6.00;3.60;;;11.30;99.90;;;;;;5032274;28;20443;-75
2022/04/14 01:44:21;;;;;;;7.70;3.67;;;11.20;99.90;;;;;;5032201;28;20417;-74
2022/04/14 01:46:47;;;;;;;9.87;4.30;;;11.20;99.90;;;;;;5014403;28;20446;-74
2022/04/14 01:49:13;;;;;;;8.33;3.60;;;11.10;99.90;;;;;;5032565;28;20181;-74
2022/04/14 01:51:40;;;;;;;11.47;4.13;;;11.10;99.90;;;;;;5031924;28;20569;-75
2022/04/14 01:54:06;;;;;;;5.53;3.50;;;11.20;99.90;;;;;;5032218;28;20182;-74
2022/04/14 01:56:32;;;;;;;12.33;3.50;;;11.20;99.90;;;;;;5032177;28;20960;-73
2022/04/14 01:58:58;;;;;;;4.73;3.40;;;11.20;99.90;;;;;;5032080;28;20415;-73
2022/04/14 02:01:24;;;;;;;7.63;3.10;;;11.20;99.90;;;;;;5031963;28;20447;-74
2022/04/14 02:03:50;;;;;;;14.53;4.67;;;11.20;99.90;;;;;;5032286;28;20423;-74
2022/04/14 02:06:16;;;;;;;8.53;4.03;;;11.20;99.90;;;;;;5013857;28;20477;-73
2022/04/14 02:08:42;;;;;;;12.93;4.00;;;11.10;99.90;;;;;;5031843;28;20470;-73
2022/04/14 02:11:08;;;;;;;6.83;4.10;;;11.10;99.90;;;;;;5031908;28;20208;-73
2022/04/14 02:13:34;;;;;;;8.83;3.97;;;11.00;99.90;;;;;;5031803;28;20443;-73
2022/04/14 02:16:00;;;;;;;10.90;3.63;;;11.00;99.90;;;;;;5013945;28;20476;-74
2022/04/14 02:18:26;;;;;;;10.77;3.43;;;11.00;99.90;;;;;;5013464;28;20631;-74
2022/04/14 02:20:52;;;;;;;6.43;3.40;;;11.00;99.90;;;;;;5013820;28;20518;-73
2022/04/14 02:23:18;;;;;;;10.00;3.63;;;11.10;99.90;;;;;;5013741;28;20216;-72
2022/04/14 02:25:44;;;;;;;5.90;3.20;;;11.10;99.90;;;;;;5013185;28;20480;-72
2022/04/14 02:28:10;;;;;;;12.23;3.43;;;11.20;99.90;;;;;;5031496;28;20412;-73
2022/04/14 02:30:37;;;;;;;7.73;3.63;;;11.20;99.90;;;;;;5031540;28;20463;-74
2022/04/14 02:33:03;;;;;;;9.43;4.07;;;11.30;99.90;;;;;;5031532;28;20869;-75
2022/04/14 02:35:29;;;;;;;4.30;3.33;;;11.30;99.90;;;;;;5031096;28;20421;-73
2022/04/14 02:37:57;;;;;;;7.50;4.03;;;11.20;99.90;;;;;;5031203;28;20506;-74
2022/04/14 02:40:26;;;;;;;14.57;4.63;;;11.20;99.90;;;;;;5030454;28;20188;-74
2022/04/14 02:42:54;;;;;;;7.53;3.20;;;11.20;99.90;;;;;;5031447;28;20429;-74
2022/04/14 02:45:21;;;;;;;10.53;3.63;;;11.10;99.90;;;;;;5012983;28;20482;-73
2022/04/14 02:47:46;;;;;;;14.03;3.77;;;11.20;99.90;;;;;;5031166;28;20418;-73
2022/04/14 02:50:12;;;;;;;9.67;3.80;;;11.00;99.90;;;;;;5031033;28;20439;-72
2022/04/14 02:52:38;;;;;;;8.70;3.30;;;11.10;99.90;;;;;;5013026;28;20269;-72
2022/04/14 02:55:04;;;;;;;6.50;3.10;;;11.10;99.90;;;;;;5030788;28;20226;-71
2022/04/14 02:57:30;;;;;;;9.77;3.50;;;11.10;99.90;;;;;;5013637;28;20227;-72
2022/04/14 02:59:56;;;;;;;8.87;3.77;;;11.10;99.90;;;;;;5030864;28;20423;-72
2022/04/14 03:02:22;;;;;;;6.33;3.53;;;11.00;99.90;;;;;;5030917;28;20431;-71
2022/04/14 03:04:48;;;;;;;9.87;4.30;;;11.00;99.90;;;;;;5030929;28;20827;-73
2022/04/14 03:07:13;;;;;;;5.73;3.67;;;10.90;99.90;;;;;;5013039;28;20448;-75
2022/04/14 03:09:39;;;;;;;9.50;4.00;;;10.80;99.90;;;;;;5031006;28;20289;-73
2022/04/14 03:12:05;;;;;;;9.70;3.93;;;10.90;99.90;;;;;;5030964;28;20183;-73
2022/04/14 03:14:31;;;;;;;7.40;4.37;;;10.80;99.90;;;;;;5031097;28;20232;-71
2022/04/14 03:16:57;;;;;;;8.87;4.70;;;10.80;99.90;;;;;;5030926;28;20956;-73
2022/04/14 03:19:22;;;;;;;8.47;4.53;;;10.80;99.90;;;;;;5031206;28;20180;-72
2022/04/14 03:21:48;;;;;;;8.30;4.23;;;10.70;99.90;;;;;;5013308;28;20496;-72
2022/04/14 03:24:14;;;;;;;9.57;4.10;;;10.60;99.90;;;;;;5013308;28;20220;-73
2022/04/14 03:26:39;;;;;;;7.53;3.87;;;10.70;99.90;;;;;;5031020;28;20842;-72
2022/04/14 03:29:05;;;;;;;8.93;4.10;;;10.60;99.90;;;;;;5030939;28;20238;-76
2022/04/14 03:31:31;;;;;;;20.83;4.80;;;10.50;99.90;;;;;;5013202;28;20173;-76
2022/04/14 03:33:57;;;;;;;8.40;4.40;;;10.50;99.90;;;;;;5030882;28;20267;-76
2022/04/14 03:36:23;;;;;;;6.93;4.10;;;10.40;99.90;;;;;;5030317;28;20510;-72
2022/04/14 03:38:48;;;;;;;8.87;3.90;;;10.40;99.90;;;;;;5012750;28;20582;-73
2022/04/14 03:41:14;;;;;;;9.87;3.80;;;10.40;99.90;;;;;;5030226;28;20260;-73
2022/04/14 03:43:40;;;;;;;13.93;4.40;;;10.40;99.90;;;;;;5030264;28;20186;-71
2022/04/14 03:46:05;;;;;;;10.80;4.10;;;10.40;99.90;;;;;;5029905;28;20597;-72
2022/04/14 03:48:31;;;;;;;12.10;4.30;;;10.40;99.90;;;;;;5012363;28;20544;-71
2022/04/14 03:50:57;;;;;;;7.30;3.80;;;10.30;99.90;;;;;;5028886;28;20179;-71
2022/04/14 03:53:23;;;;;;;15.23;5.40;;;10.30;99.90;;;;;;5012150;28;20638;-73
2022/04/14 03:55:49;;;;;;;11.93;5.30;;;10.20;99.90;;;;;;5029837;28;20507;-71
2022/04/14 03:58:15;;;;;;;6.50;4.17;;;10.20;99.90;;;;;;5029942;28;20497;-71
2022/04/14 04:00:44;;;;;;;15.07;4.20;;;10.20;99.90;;;;;;5029761;28;20268;-72
2022/04/14 04:03:11;;;;;;;9.97;4.13;;;10.20;99.90;;;;;;5030231;28;20768;-75
2022/04/14 04:05:38;;;;;;;10.23;3.90;;;10.30;99.90;;;;;;5029646;28;20504;-75
2022/04/14 04:08:07;;;;;;;11.90;4.00;;;10.40;99.90;;;;;;5030005;28;20446;-75
2022/04/14 04:10:34;;;;;;;11.03;4.70;;;10.50;99.90;;;;;;5031298;28;20498;-75
2022/04/14 04:12:59;;;;;;;9.47;3.93;;;10.50;99.90;;;;;;5031205;28;20422;-75
2022/04/14 04:15:25;;;;;;;8.17;4.27;;;10.50;99.90;;;;;;5030322;28;20415;-75
2022/04/14 04:17:51;;;;;;;15.63;4.90;;;10.50;99.90;;;;;;5012847;28;20215;-75
2022/04/14 04:20:18;;;;;;;9.27;4.70;;;10.50;99.90;;;;;;5029500;28;20190;-75
2022/04/14 04:22:43;;;;;;;13.77;4.90;;;10.60;99.90;;;;;;5028957;28;20420;-75
2022/04/14 04:25:10;;;;;;;9.83;4.33;;;10.60;99.90;;;;;;5011083;28;21004;-76
2022/04/14 04:27:36;;;;;;;11.63;4.20;;;10.60;99.90;;;;;;5042492;28;20207;-76
2022/04/14 04:30:07;;;;;;;6.73;4.00;;;10.50;99.90;;;;;;5028781;28;20431;-75
2022/04/14 04:32:33;;;;;;;9.40;4.50;;;10.50;99.90;;;;;;5028123;28;20429;-75
2022/04/14 04:35:00;;;;;;;15.50;4.30;;;10.40;99.90;;;;;;5028010;28;20433;-75
2022/04/14 04:37:25;;;;;;;11.40;3.80;;;10.30;99.90;;;;;;5027752;28;20530;-76
2022/04/14 04:39:51;;;;;;;16.97;6.07;;;10.30;99.90;;;;;;5027651;28;20583;-76
2022/04/14 04:42:17;;;;;;;8.87;4.87;;;10.30;99.90;;;;;;5010067;28;20197;-75
2022/04/14 04:44:42;;;;;;;13.37;5.47;;;10.30;99.90;;;;;;5028075;28;20224;-76
2022/04/14 04:47:08;;;;;;;9.93;4.53;;;10.40;99.90;;;;;;5029805;28;20208;-75
2022/04/14 04:49:34;;;;;;;6.20;4.50;;;10.40;99.90;;;;;;5011167;28;20266;-76
2022/04/14 04:52:00;;;;;;;8.83;5.33;;;10.50;99.90;;;;;;5009992;28;20190;-75
2022/04/14 04:54:26;;;;;;;13.93;5.20;;;10.50;99.90;;;;;;5028263;28;20426;-75
2022/04/14 04:56:52;;;;;;;21.53;5.50;;;10.50;99.90;;;;;;5027564;28;20216;-76
2022/04/14 04:59:17;;;;;;;13.13;6.03;;;10.50;99.90;;;;;;5010029;28;20422;-76
2022/04/14 05:01:43;;;;;;;10.97;5.20;;;10.60;99.90;;;;;;5027578;28;20244;-75
2022/04/14 05:04:11;;;;;;;17.47;5.70;;;10.60;99.90;;;;;;5027673;28;20281;-75
2022/04/14 05:06:37;;;;;;;6.73;5.87;;;10.50;99.90;;;;;;5027811;28;20218;-75
2022/04/14 05:09:03;;;;;;;12.43;5.30;;;10.50;99.90;;;;;;5027902;28;20902;-75
2022/04/14 05:11:29;;;;;;;9.83;6.07;;;10.60;99.90;;;;;;5027973;28;20432;-76
2022/04/14 05:13:55;;;;;;;17.27;6.33;;;10.60;99.90;;;;;;5027658;28;20426;-75
2022/04/14 05:16:20;;;;;;;15.53;6.40;;;10.80;99.90;;;;;;5027520;28;20895;-76
2022/04/14 05:18:46;;;;;;;11.37;7.37;;;10.90;99.90;;;;;;5027510;28;20196;-76
2022/04/14 05:21:12;;;;;;;11.43;6.80;;;11.00;99.90;;;;;;4993343;28;20213;-75
2022/04/14 05:23:37;;;;;;;14.07;6.43;;;11.10;99.90;;;;;;5027425;28;20198;-75
2022/04/14 05:26:03;;;;;;;10.10;6.10;;;11.10;99.90;;;;;;5027358;28;20279;-75
2022/04/14 05:28:29;;;;;;;18.00;7.33;;;11.20;99.90;;;;;;5027237;28;20274;-75
2022/04/14 05:30:55;;;;;;;11.97;7.20;;;11.20;99.90;;;;;;4992746;28;20940;-75
2022/04/14 05:33:21;;;;;;;10.30;6.47;;;11.30;99.90;;;;;;5010055;28;20186;-75
2022/04/14 05:35:46;;;;;;;12.57;6.20;;;11.40;99.90;;;;;;5026902;28;20679;-75
2022/04/14 05:38:12;;;;;;;20.43;8.17;;;11.50;99.90;;;;;;5027036;28;20553;-75
2022/04/14 05:40:41;;;;;;;22.97;7.80;;;11.60;99.90;;;;;;5027087;28;20181;-75
2022/04/14 05:43:30;;;;;;;11.57;6.80;;;11.80;99.90;;;;;;5027202;28;20432;-75
2022/04/14 05:45:56;;;;;;;18.93;7.30;;;12.00;99.90;;;;;;5026852;28;20630;-75
2022/04/14 05:48:21;;;;;;;17.60;7.67;;;12.20;99.90;;;;;;5026845;28;20992;-75
2022/04/14 05:50:49;;;;;;;14.47;7.40;;;12.30;99.90;;;;;;5009017;28;20425;-75
2022/04/14 05:53:16;;;;;;;13.40;7.93;;;12.50;99.90;;;;;;5026958;28;20183;-75
2022/04/14 05:55:42;;;;;;;14.60;7.03;;;12.80;99.90;;;;;;5009177;28;20454;-75
2022/04/14 05:58:08;;;;;;;12.20;8.33;;;13.00;99.90;;;;;;5027133;28;20428;-75
2022/04/14 06:00:36;;;;;;;16.10;7.53;;;13.20;99.90;;;;;;5026938;28;20429;-75
2022/04/14 06:03:02;;;;;;;16.63;9.07;;;13.50;99.90;;;;;;5026916;28;20492;-75
2022/04/14 06:05:29;;;;;;;21.60;8.67;;;13.70;99.90;;;;;;5026470;28;20469;-75
2022/04/14 06:07:55;;;;;;;17.40;9.03;;;13.90;99.90;;;;;;5026755;28;20422;-75
2022/04/14 06:10:25;;;;;;;16.00;8.43;;;14.00;99.90;;;;;;5008823;28;20494;-75
2022/04/14 06:12:51;;;;;;;20.13;9.50;;;14.10;99.90;;;;;;5027359;28;21064;-75
2022/04/14 06:15:17;;;;;;;16.00;9.10;;;14.20;99.90;;;;;;5029833;28;21227;-75
2022/04/14 06:17:44;;;;;;;14.50;9.40;;;14.40;99.90;;;;;;5030742;28;20521;-75
2022/04/14 06:20:11;;;;;;;23.73;10.77;;;14.60;99.90;;;;;;5030808;28;21217;-75
2022/04/14 06:22:38;;;;;;;18.10;10.90;;;14.90;99.90;;;;;;5031147;28;21308;-75
2022/04/14 06:25:05;;;;;;;23.43;11.50;;;15.00;99.90;;;;;;5031063;28;20857;-76
2022/04/14 06:27:31;;;;;;;30.00;12.80;;;15.10;99.90;;;;;;5031154;28;20866;-75
2022/04/14 06:29:56;;;;;;;27.73;18.47;;;15.20;99.90;;;;;;5031026;28;20426;-75
2022/04/14 06:32:22;;;;;;;32.20;22.87;;;15.30;99.90;;;;;;5030762;28;20183;-75
2022/04/14 06:34:48;;;;;;;32.87;22.47;;;15.40;99.90;;;;;;5030278;28;20184;-75
2022/04/14 06:37:13;;;;;;;39.87;21.67;;;15.30;99.90;;;;;;5012482;28;20678;-75
2022/04/14 06:39:39;;;;;;;35.73;22.00;;;15.50;99.90;;;;;;5012378;28;20568;-76
2022/04/14 06:42:05;;;;;;;31.73;23.57;;;15.80;99.90;;;;;;5030234;28;20189;-75
2022/04/14 06:44:31;;;;;;;30.60;21.80;;;15.80;99.90;;;;;;5012285;28;20210;-76
2022/04/14 06:46:56;;;;;;;35.40;21.93;;;16.10;99.90;;;;;;5030151;28;20493;-75
2022/04/14 06:49:22;;;;;;;26.30;17.37;;;16.30;99.90;;;;;;5030287;28;20206;-76
2022/04/14 06:51:47;;;;;;;25.83;18.93;;;16.60;99.90;;;;;;5030234;28;20203;-76
2022/04/14 06:54:13;;;;;;;25.20;18.03;;;16.80;99.90;;;;;;5030245;28;20190;-76
2022/04/14 06:56:39;;;;;;;39.07;20.40;;;16.90;99.90;;;;;;5030106;28;20646;-76
2022/04/14 06:59:04;;;;;;;24.93;17.10;;;17.00;99.90;;;;;;5012273;28;20940;-75
2022/04/14 07:01:30;;;;;;;21.70;15.83;;;16.90;99.90;;;;;;5030265;28;20193;-75
2022/04/14 07:03:56;;;;;;;28.80;17.73;;;17.10;99.90;;;;;;5030459;28;20704;-75
2022/04/14 07:06:21;;;;;;;27.57;19.63;;;17.30;99.90;;;;;;5030158;28;20766;-76
2022/04/14 07:08:47;;;;;;;24.40;17.60;;;17.20;99.90;;;;;;5030323;28;20188;-76
2022/04/14 07:11:13;;;;;;;30.03;16.50;;;17.00;99.90;;;;;;5030139;28;20196;-76
2022/04/14 07:13:39;;;;;;;25.40;17.40;;;17.20;99.90;;;;;;5012149;28;20184;-76
2022/04/14 07:16:05;;;;;;;26.93;18.30;;;17.40;99.90;;;;;;5029632;28;20205;-76
2022/04/14 07:18:30;;;;;;;27.67;20.07;;;17.50;99.90;;;;;;5029570;28;20483;-75
2022/04/14 07:20:56;;;;;;;28.23;20.10;;;17.60;99.90;;;;;;5029298;28;20533;-75
2022/04/14 07:23:22;;;;;;;33.30;21.40;;;17.70;99.90;;;;;;5029288;28;20221;-76
2022/04/14 07:25:48;;;;;;;35.57;22.93;;;18.00;99.90;;;;;;5010631;28;21011;-76
2022/04/14 07:28:14;;;;;;;34.20;22.87;;;18.00;99.90;;;;;;5029553;28;20545;-76
2022/04/14 07:30:40;;;;;;;28.20;19.60;;;18.10;99.90;;;;;;5011234;28;20922;-76
2022/04/14 07:33:05;;;;;;;27.70;19.13;;;18.10;99.90;;;;;;5029087;28;20411;-76
2022/04/14 07:35:32;;;;;;;29.70;20.60;;;18.20;99.90;;;;;;5028871;28;20259;-76
2022/04/14 07:37:58;;;;;;;36.10;22.03;;;18.40;99.90;;;;;;5028817;28;20592;-76
2022/04/14 07:40:24;;;;;;;35.03;21.23;;;18.40;99.90;;;;;;5029005;28;20440;-75
2022/04/14 07:42:50;;;;;;;32.37;19.23;;;18.40;99.90;;;;;;5028791;28;20806;-75
2022/04/14 07:45:17;;;;;;;34.67;21.87;;;18.40;99.90;;;;;;5028511;28;20455;-75
2022/04/14 07:47:44;;;;;;;26.93;17.50;;;18.40;99.90;;;;;;5010444;28;20461;-76
2022/04/14 07:50:12;;;;;;;28.63;18.67;;;18.70;99.90;;;;;;5028666;28;20427;-75
2022/04/14 07:52:49;;;;;;;24.83;17.63;;;18.80;99.90;;;;;;5028604;28;20772;-76
2022/04/14 07:55:30;;;;;;;32.73;19.60;;;18.90;99.90;;;;;;4994595;28;20442;-75
2022/04/14 07:57:58;;;;;;;28.73;18.17;;;18.80;99.90;;;;;;5010683;28;20435;-76
2022/04/14 08:00:24;;;;;;;26.90;18.30;;;18.90;99.90;;;;;;5010755;28;21230;-76
2022/04/14 08:02:56;;;;;;;28.93;18.20;;;18.90;99.90;;;;;;5028489;28;20430;-76
2022/04/14 08:05:29;;;;;;;26.90;18.27;;;18.90;99.90;;;;;;5028368;28;20880;-75
2022/04/14 08:07:55;;;;;;;27.43;17.07;;;19.00;99.90;;;;;;5028706;28;20416;-76
2022/04/14 08:10:21;;;;;;;32.57;17.20;;;19.30;99.90;;;;;;5028332;28;20929;-75
2022/04/14 08:12:47;;;;;;;27.13;16.53;;;19.30;99.90;;;;;;5010419;28;20423;-75
2022/04/14 08:15:13;;;;;;;25.10;17.37;;;19.40;99.90;;;;;;5028229;28;20614;-75
2022/04/14 08:17:43;;;;;;;29.30;17.10;;;19.30;99.90;;;;;;5028096;28;20726;-76
2022/04/14 08:20:10;;;;;;;29.57;17.27;;;19.20;99.90;;;;;;5028178;28;20195;-75
2022/04/14 08:22:54;;;;;;;25.73;17.20;;;19.10;99.90;;;;;;5028057;28;20510;-75
2022/04/14 08:25:25;;;;;;;29.07;17.57;;;19.50;99.90;;;;;;5027973;28;20481;-75
2022/04/14 08:27:52;;;;;;;32.23;16.70;;;19.50;99.90;;;;;;5028097;28;20468;-75
2022/04/14 08:30:20;;;;;;;25.60;15.53;;;19.60;99.90;;;;;;5028555;28;20508;-75
2022/04/14 08:32:48;;;;;;;23.83;15.97;;;19.70;99.90;;;;;;5029793;28;20430;-75
2022/04/14 08:35:15;;;;;;;30.30;16.60;;;19.80;99.90;;;;;;5028118;28;20419;-75
2022/04/14 08:37:42;;;;;;;27.27;17.50;;;19.70;99.90;;;;;;5036048;28;20438;-75
2022/04/14 08:40:10;;;;;;;25.30;15.97;;;19.80;99.90;;;;;;5048661;28;20414;-75
2022/04/14 08:42:39;;;;;;;27.97;16.33;;;19.90;99.90;;;;;;5048767;28;20431;-75
2022/04/14 08:45:07;;;;;;;24.40;16.40;;;20.10;99.90;;;;;;5048601;28;20560;-75
2022/04/14 08:47:36;;;;;;;27.93;16.37;;;20.30;99.90;;;;;;5034194;28;20526;-75
2022/04/14 08:50:03;;;;;;;21.73;15.20;;;20.50;99.30;;;;;;5028626;28;20971;-76
2022/04/14 08:52:31;;;;;;;29.97;17.60;;;20.50;99.10;;;;;;5028159;28;20493;-75
2022/04/14 08:54:57;;;;;;;25.40;16.37;;;20.60;99.50;;;;;;5028280;28;20793;-75
2022/04/14 08:57:24;;;;;;;22.60;16.73;;;20.70;98.90;;;;;;5027729;28;20439;-75
2022/04/14 08:59:50;;;;;;;30.73;17.33;;;20.60;98.90;;;;;;5028059;28;20426;-75
2022/04/14 09:02:23;;;;;;;29.80;17.60;;;20.50;99.50;;;;;;5027704;28;20453;-75
2022/04/14 09:04:49;;;;;;;25.17;15.47;;;20.70;99.30;;;;;;5027587;28;20470;-75
2022/04/14 09:07:16;;;;;;;25.73;16.50;;;21.10;99.70;;;;;;5009479;28;20438;-75
2022/04/14 09:09:42;;;;;;;24.57;15.10;;;21.50;97.80;;;;;;5027666;28;20407;-75
2022/04/14 09:12:10;;;;;;;19.80;15.90;;;21.80;97.20;;;;;;5027559;28;20497;-76
2022/04/14 09:14:37;;;;;;;27.23;15.93;;;22.00;96.50;;;;;;5027666;28;20442;-75
2022/04/14 09:17:04;;;;;;;28.90;16.37;;;22.20;97.10;;;;;;5027531;28;20441;-76
2022/04/14 09:19:31;;;;;;;23.80;16.40;;;22.40;96.40;;;;;;5027946;28;20773;-75
2022/04/14 09:22:11;;;;;;;31.00;17.07;;;22.60;95.70;;;;;;5009872;28;20480;-75
2022/04/14 09:24:41;;;;;;;26.47;16.70;;;22.80;96.00;;;;;;5010883;28;20446;-75
2022/04/14 09:27:07;;;;;;;29.40;17.00;;;23.00;94.10;;;;;;5027780;28;20456;-75
2022/04/14 09:29:33;;;;;;;27.53;17.70;;;23.30;93.60;;;;;;5027669;28;20794;-75
2022/04/14 09:31:59;;;;;;;23.93;15.00;;;23.50;92.80;;;;;;5028789;28;20427;-75
2022/04/14 09:34:54;;;;;;;22.93;15.97;;;23.40;93.60;;;;;;5027533;28;20641;-75
2022/04/14 09:37:23;;;;;;;17.67;14.27;;;23.80;93.60;;;;;;5027237;28;20284;-75
2022/04/14 09:40:00;;;;;;;22.33;14.90;;;24.10;91.80;;;;;;5010019;28;20943;-75
2022/04/14 09:42:28;;;;;;;22.70;14.90;;;24.30;91.00;;;;;;5009363;28;20427;-75
2022/04/14 09:44:54;;;;;;;24.90;16.60;;;24.40;90.90;;;;;;5027176;28;21054;-75
2022/04/14 09:47:53;;;;;;;21.63;14.83;;;24.30;91.20;;;;;;5026915;28;20476;-75
2022/04/14 09:50:27;;;;;;;30.93;15.77;;;24.30;91.40;;;;;;5008683;28;20198;-75
2022/04/14 09:53:04;;;;;;;26.50;13.40;;;24.60;90.70;;;;;;5030956;28;20432;-75
2022/04/14 09:55:30;;;;;;;220.87;31.23;;;24.70;90.40;;;;;;5031425;28;20424;-75
2022/04/14 09:58:25;;;;;;;33.73;16.30;;;25.00;87.90;;;;;;5031174;28;20925;-75
2022/04/14 10:00:58;;;;;;;22.00;15.07;;;25.10;88.30;;;;;;5010488;28;20198;-75
2022/04/14 10:03:24;;;;;;;21.40;14.03;;;25.20;89.50;;;;;;5030760;28;21231;-75
2022/04/14 10:05:55;;;;;;;20.70;14.23;;;25.30;86.70;;;;;;5012670;28;20555;-75
2022/04/14 10:08:24;;;;;;;21.73;13.13;;;25.50;87.60;;;;;;5030634;28;20430;-75
2022/04/14 10:11:03;;;;;;;26.13;15.33;;;25.70;84.90;;;;;;5030634;28;21052;-75
2022/04/14 10:13:35;;;;;;;19.70;14.70;;;25.70;84.30;;;;;;5030509;28;20447;-75
2022/04/14 10:16:02;;;;;;;24.57;14.77;;;25.70;83.40;;;;;;5012670;28;20453;-75
2022/04/14 10:18:27;;;;;;;25.47;14.30;;;25.70;86.40;;;;;;5030253;28;20425;-74
2022/04/14 10:20:53;;;;;;;21.57;13.20;;;25.90;84.30;;;;;;5030344;28;20796;-74
2022/04/14 10:23:20;;;;;;;23.73;12.90;;;26.10;84.80;;;;;;5012351;28;20230;-74
2022/04/14 10:25:47;;;;;;;25.03;14.57;;;26.00;82.40;;;;;;5029869;28;20573;-74
2022/04/14 10:28:15;;;;;;;20.80;15.13;;;25.90;83.20;;;;;;4996173;28;20425;-75
2022/04/14 10:30:52;;;;;;;24.07;13.97;;;26.00;83.70;;;;;;5030383;28;20425;-74
2022/04/14 10:33:22;;;;;;;18.77;14.00;;;26.00;82.30;;;;;;5030201;28;20418;-75
2022/04/14 10:35:48;;;;;;;25.10;15.33;;;26.20;82.80;;;;;;5012174;28;20453;-74
2022/04/14 10:38:29;;;;;;;24.20;14.83;;;26.40;82.30;;;;;;5030124;28;20430;-76
2022/04/14 10:40:59;;;;;;;60.40;17.73;;;26.70;79.80;;;;;;5030178;28;20469;-74
2022/04/14 10:43:26;;;;;;;21.53;14.00;;;26.60;77.60;;;;;;5029883;28;20434;-74
2022/04/14 10:45:57;;;;;;;18.40;13.47;;;26.70;77.20;;;;;;5012323;28;20534;-74
2022/04/14 10:48:30;;;;;;;19.10;13.33;;;26.70;81.30;;;;;;5030252;28;20418;-75
2022/04/14 10:51:16;;;;;;;28.47;14.50;;;26.80;77.70;;;;;;5029968;28;20520;-74
2022/04/14 10:53:48;;;;;;;18.03;11.90;;;26.70;80.80;;;;;;5030202;28;20454;-74
2022/04/14 10:56:49;;;;;;;27.10;13.83;;;26.90;82.10;;;;;;5030040;28;20439;-74
2022/04/14 10:59:34;;;;;;;25.13;13.13;;;26.90;78.70;;;;;;4976851;28;21089;-74
2022/04/14 11:02:04;;;;;;;21.67;12.80;;;27.00;79.40;;;;;;5030366;28;20461;-74
2022/04/14 11:04:42;;;;;;;21.17;14.03;;;27.00;80.70;;;;;;5029932;28;20868;-74
2022/04/14 11:07:13;;;;;;;21.87;14.13;;;27.00;77.30;;;;;;5029706;28;20807;-74
2022/04/14 11:09:42;;;;;;;24.30;14.50;;;27.00;78.80;;;;;;5029473;28;20514;-74
2022/04/14 11:12:28;;;;;;;25.30;14.50;;;27.00;78.00;;;;;;5011501;28;20464;-75
2022/04/14 11:15:04;;;;;;;18.90;12.50;;;27.10;79.60;;;;;;5029628;28;20485;-74
2022/04/14 11:17:40;;;;;;;21.20;13.53;;;27.20;79.50;;;;;;5029476;28;20446;-74
2022/04/14 11:20:16;;;;;;;25.00;13.50;;;27.20;77.60;;;;;;5029644;28;21132;-75
2022/04/14 11:23:01;;;;;;;23.77;12.53;;;27.10;77.10;;;;;;5011421;28;20515;-74
2022/04/14 11:26:09;;;;;;;23.87;13.97;;;27.30;77.00;;;;;;5028962;28;20892;-76
2022/04/14 11:28:40;;;;;;;20.70;12.20;;;27.40;77.20;;;;;;4985447;28;20431;-76
2022/04/14 11:31:17;;;;;;;21.77;12.40;;;27.30;77.50;;;;;;5029624;28;20783;-76
2022/04/14 11:33:48;;;;;;;17.03;11.80;;;27.50;76.70;;;;;;5028992;28;20415;-76
2022/04/14 11:36:16;;;;;;;22.73;13.30;;;27.70;77.40;;;;;;5029117;28;20442;-75
2022/04/14 11:38:53;;;;;;;21.23;12.60;;;27.80;73.20;;;;;;5028958;28;20518;-75
2022/04/14 11:41:37;;;;;;;27.53;12.90;;;27.80;70.90;;;;;;5028889;28;20419;-75
2022/04/14 11:44:06;;;;;;;24.70;12.47;;;27.60;73.00;;;;;;5011068;28;20426;-75
2022/04/14 11:46:34;;;;;;;20.27;10.03;;;27.60;74.50;;;;;;5028560;28;20561;-76
2022/04/14 11:49:01;;;;;;;18.87;11.50;;;27.60;73.30;;;;;;5028750;28;20411;-75
2022/04/14 11:51:27;;;;;;;23.90;12.30;;;27.60;74.00;;;;;;5028692;28;20926;-75
2022/04/14 11:53:54;;;;;;;23.70;13.30;;;27.50;74.50;;;;;;5028698;28;20456;-76
2022/04/14 11:56:20;;;;;;;20.60;13.00;;;27.50;74.20;;;;;;5028532;28;20443;-75
2022/04/14 11:58:46;;;;;;;15.47;11.30;;;27.50;74.50;;;;;;5028491;28;20458;-75
2022/04/14 12:01:13;;;;;;;22.83;11.60;;;27.40;73.70;;;;;;5028597;28;21113;-75
2022/04/14 12:03:39;;;;;;;19.77;11.10;;;27.40;72.70;;;;;;5028666;28;20955;-76
2022/04/14 12:06:08;;;;;;;17.90;11.93;;;27.50;73.50;;;;;;5010519;28;20557;-75
2022/04/14 12:08:34;;;;;;;24.73;11.83;;;27.50;74.70;;;;;;5028489;28;20426;-76
2022/04/14 12:11:04;;;;;;;23.50;11.13;;;27.50;73.40;;;;;;5028218;28;20920;-76
2022/04/14 12:13:35;;;;;;;19.20;12.30;;;27.50;72.70;;;;;;5010236;28;20445;-75
2022/04/14 12:16:06;;;;;;;24.80;13.93;;;27.50;75.30;;;;;;5028399;28;20546;-75
2022/04/14 12:18:32;;;;;;;20.17;12.70;;;27.50;75.50;;;;;;5029981;28;20416;-74
2022/04/14 12:20:58;;;;;;;17.33;13.20;;;27.40;74.20;;;;;;5029303;28;20423;-74
2022/04/14 12:23:24;;;;;;;15.03;12.20;;;27.30;76.20;;;;;;5010554;28;20863;-74
2022/04/14 12:25:51;;;;;;;20.93;13.10;;;27.50;76.40;;;;;;5027794;28;20220;-74
2022/04/14 12:28:17;;;;;;;18.47;12.53;;;27.30;76.00;;;;;;5028010;28;20419;-74
2022/04/14 12:30:42;;;;;;;19.70;13.80;;;27.20;76.00;;;;;;5027964;28;20794;-75
2022/04/14 12:33:09;;;;;;;25.97;12.00;;;27.20;77.70;;;;;;5027972;28;20180;-74
2022/04/14 12:35:41;;;;;;;26.17;14.70;;;27.20;77.40;;;;;;5027924;28;20192;-75
2022/04/14 12:38:28;;;;;;;22.63;12.67;;;27.00;75.10;;;;;;4993622;28;20423;-74